ADDS METAR Data INFO
IDs: Format: Raw Decoded Include TAF

Data at: 0730 UTC 18 Oct 2017

KEMP 180653Z AUTO 17012KT 10SM CLR 10/07 A3007 RMK AO2 SLP179 T01000067 $
KEMP 180553Z AUTO 18013KT 10SM CLR 11/07 A3008 RMK AO2 SLP182 T01110067 10178 20111 402390061 58007 $
KEMP 180453Z AUTO 18009KT 10SM CLR 12/07 A3009 RMK AO2 SLP186 T01170072 $
KEMP 180353Z AUTO 17010KT 10SM CLR 12/07 A3009 RMK AO2 SLP190 T01220072 $
KEMP 180253Z AUTO 17008KT 10SM CLR 12/07 A3010 RMK AO2 SLP193 T01170072 $
KEMP 180153Z AUTO 17007KT 10SM 14/07 A3009 RMK AO2 SLP189 T01390072 $
KEMP 180053Z AUTO 17008KT 10SM CLR 15/07 A3008 RMK AO2 SLP187 T01500072
KEMP 172353Z AUTO 18009KT 10SM CLR 18/07 A3006 RMK AO2 SLP181 T01780067 10239 20178 55004
KEMP 172253Z AUTO 19014KT 10SM CLR 21/07 A3006 RMK AO2 SLP178 T02110067
KEMP 172153Z AUTO 19014G20KT 10SM CLR 23/07 A3007 RMK AO2 SLP180 T02280067
KEMP 172053Z AUTO 20016G24KT 10SM CLR 23/06 A3008 RMK AO2 SLP183 T02330061 56024
KEMP 171953Z AUTO 19021G26KT 10SM CLR 23/07 A3009 RMK AO2 PK WND 19028/1930 SLP187 T02330067
KEMP 171853Z AUTO 19016G26KT 10SM CLR 23/06 A3012 RMK AO2 PK WND 19028/1833 SLP196 T02280061
KEMP 171753Z AUTO 19019G25KT 10SM CLR 22/06 A3015 RMK AO2 SLP208 T02170061 10217 20067 58016
KEMP 171653Z AUTO 20017KT 10SM CLR 21/06 A3018 RMK AO2 SLP218 T02060056
KEMP 171553Z AUTO 17011KT 10SM CLR 17/06 A3020 RMK AO2 SLP228 T01670061
KEMP 171453Z AUTO 18013G20KT 10SM CLR 14/06 A3020 RMK AO2 SLP229 T01390056 52001
KEMP 171353Z AUTO 17010KT 10SM CLR 11/04 A3021 RMK AO2 SLP232 T01060044
KEMP 171253Z AUTO 17009KT 10SM CLR 08/03 A3019 RMK AO2 SLP228 T00780033
KEMP 171153Z AUTO 18008KT 10SM CLR 08/03 A3020 RMK AO2 SLP228 T00830033 10100 20061 55002
KEMP 171053Z AUTO 17012KT 10SM CLR 09/03 A3018 RMK AO2 SLP220 T00890033
KEMP 170953Z AUTO 18010KT 10SM CLR 08/04 A3019 RMK AO2 SLP224 T00780039
KEMP 170853Z AUTO 18006KT 10SM CLR 07/04 A3020 RMK AO2 SLP228 T00720039 58005
KEMP 170753Z AUTO 19008KT 10SM CLR 09/04 A3021 RMK AO2 SLP229 T00940039
KEMP 170653Z AUTO 18010KT 10SM CLR 10/04 A3022 RMK AO2 SLP232 T01000039
KEMP 170553Z AUTO 18012KT 10SM CLR 10/04 A3022 RMK AO2 SLP232 T01000044 10139 20083 402110028 58014
KEMP 170453Z AUTO 18009KT 10SM CLR 09/04 A3024 RMK AO2 SLP240 T00890039
KEMP 170353Z AUTO 17009KT 10SM CLR 10/04 A3025 RMK AO2 SLP244 T01000044
KEMP 170253Z AUTO 18009KT 10SM CLR 09/04 A3026 RMK AO2 SLP251 T00890039 53007
KEMP 170153Z AUTO 19008KT 10SM CLR 09/04 A3025 RMK AO2 SLP248 T00940044
KEMP 170053Z AUTO 18007KT 10SM CLR 12/04 A3024 RMK AO2 SLP247 T01170044
KEMP 162353Z AUTO 19006KT 10SM CLR 14/04 A3024 RMK AO2 SLP245 T01390044 10211 20139 56012
KEMP 162253Z AUTO 20009KT 10SM CLR 19/04 A3025 RMK AO2 SLP245 T01890039
KEMP 162153Z AUTO 19010KT 10SM CLR 21/03 A3026 RMK AO2 SLP247 T02060028
KEMP 162053Z AUTO 19011KT 10SM CLR 21/03 A3028 RMK AO2 SLP254 T02060033 56031
KEMP 161953Z AUTO 21009KT 10SM CLR 21/03 A3030 RMK AO2 SLP262 T02060028